Time;durP1;ratioP1;P1;durP2;ratioP2;P2;SDS_P1;SDS_P2;PMS_P1;PMS_P2;Temp;Humidity;BMP_temperature;BMP_pressure;BME280_temperature;BME280_humidity;BME280_pressure;Samples;Min_cycle;Max_cycle;Signal;HPM_P1;HPM_P2
2022/06/30 00:02:22;;;;;;;4.57;4.17;;;19.10;95.10;;;;;;5062798;28;20502;-49
2022/06/30 00:04:49;;;;;;;4.50;4.10;;;19.00;94.80;;;;;;5057122;28;20474;-49
2022/06/30 00:07:15;;;;;;;4.10;3.70;;;19.10;94.70;;;;;;5046362;28;20881;-49
2022/06/30 00:09:43;;;;;;;4.80;4.30;;;19.10;94.60;;;;;;5059064;28;20479;-49
2022/06/30 00:12:10;;;;;;;5.03;4.53;;;19.10;94.50;;;;;;5056648;28;20486;-49
2022/06/30 00:14:37;;;;;;;5.53;3.93;;;19.00;94.60;;;;;;5055654;28;20509;-49
2022/06/30 00:17:04;;;;;;;4.50;4.10;;;19.00;94.70;;;;;;5052177;28;20652;-49
2022/06/30 00:19:31;;;;;;;5.53;4.17;;;18.90;94.80;;;;;;5055559;28;20475;-49
2022/06/30 00:21:58;;;;;;;5.77;4.13;;;18.80;94.70;;;;;;5056649;28;20489;-49
2022/06/30 00:24:25;;;;;;;4.87;3.70;;;18.80;94.70;;;;;;5060745;28;20486;-49
2022/06/30 00:26:53;;;;;;;7.30;4.00;;;18.80;94.50;;;;;;5052802;28;20487;-49
2022/06/30 00:29:20;;;;;;;7.70;3.87;;;18.80;94.40;;;;;;5030048;28;20476;-49
2022/06/30 00:31:47;;;;;;;4.10;3.80;;;18.70;94.60;;;;;;5054762;28;20478;-49
2022/06/30 00:34:13;;;;;;;4.87;4.00;;;18.70;95.00;;;;;;5051463;28;20516;-49
2022/06/30 00:36:40;;;;;;;5.33;4.27;;;18.60;94.30;;;;;;5060770;28;20501;-49
2022/06/30 00:39:07;;;;;;;9.80;4.33;;;18.60;94.50;;;;;;5048318;28;20484;-49
2022/06/30 00:41:34;;;;;;;4.10;3.53;;;18.60;94.90;;;;;;5045588;28;20833;-49
2022/06/30 00:44:02;;;;;;;8.53;4.00;;;18.60;94.60;;;;;;5054865;28;20484;-49
2022/06/30 00:46:29;;;;;;;9.53;4.80;;;18.40;94.80;;;;;;5051851;28;20499;-49
2022/06/30 00:48:56;;;;;;;4.90;4.50;;;18.30;95.10;;;;;;5038111;28;20485;-50
2022/06/30 00:51:22;;;;;;;7.77;4.40;;;18.10;95.80;;;;;;5055823;28;20493;-49
2022/06/30 00:53:50;;;;;;;4.13;3.83;;;18.10;95.50;;;;;;5024972;28;20479;-50
2022/06/30 00:56:18;;;;;;;11.40;5.30;;;18.10;95.70;;;;;;5047279;28;20495;-49
2022/06/30 00:58:47;;;;;;;5.50;4.00;;;18.20;95.30;;;;;;5049622;28;20479;-49
2022/06/30 01:01:18;;;;;;;3.90;3.60;;;18.20;95.00;;;;;;5051775;28;20498;-49
2022/06/30 01:03:45;;;;;;;4.43;4.03;;;18.20;95.10;;;;;;5051295;28;20521;-50
2022/06/30 01:06:12;;;;;;;5.03;4.53;;;18.20;95.00;;;;;;5043234;28;20967;-49
2022/06/30 01:08:39;;;;;;;5.37;4.60;;;18.20;94.90;;;;;;5052889;28;20483;-49
2022/06/30 01:13:51;;;;;;;4.27;3.77;;;17.90;95.30;;;;;;5050061;28;20473;-49
2022/06/30 01:16:21;;;;;;;6.43;3.93;;;17.80;95.30;;;;;;5049154;28;20497;-49
2022/06/30 01:18:48;;;;;;;6.33;4.60;;;17.80;95.40;;;;;;5057387;28;20932;-49
2022/06/30 01:21:15;;;;;;;4.73;4.17;;;17.80;95.60;;;;;;5055498;28;20870;-49
2022/06/30 01:23:43;;;;;;;10.43;4.17;;;17.80;95.50;;;;;;5063070;28;20483;-49
2022/06/30 01:26:09;;;;;;;5.33;4.23;;;17.70;95.10;;;;;;5048929;28;20470;-49
2022/06/30 01:28:36;;;;;;;4.57;3.90;;;17.70;95.40;;;;;;5055691;28;20475;-49
2022/06/30 01:31:03;;;;;;;5.17;3.97;;;17.70;95.70;;;;;;5031538;28;20489;-49
2022/06/30 01:33:30;;;;;;;4.90;3.50;;;17.70;95.60;;;;;;5050141;28;20474;-49
2022/06/30 01:35:57;;;;;;;4.70;4.30;;;17.70;95.50;;;;;;5054844;28;20513;-49
2022/06/30 01:38:24;;;;;;;5.80;4.70;;;17.70;95.50;;;;;;5053432;28;20486;-49
2022/06/30 01:40:52;;;;;;;4.63;3.83;;;17.70;95.60;;;;;;5057232;28;20490;-49
2022/06/30 01:43:19;;;;;;;5.17;4.00;;;17.60;95.20;;;;;;5056065;28;20482;-49
2022/06/30 01:45:48;;;;;;;4.40;3.97;;;17.60;95.20;;;;;;5056776;28;20478;-50
2022/06/30 01:48:15;;;;;;;5.50;5.00;;;17.50;95.20;;;;;;5053311;28;20475;-49
2022/06/30 01:50:42;;;;;;;5.27;4.80;;;17.50;94.90;;;;;;5045886;28;20476;-49
2022/06/30 01:53:08;;;;;;;13.40;5.33;;;17.50;95.00;;;;;;5051805;28;20490;-49
2022/06/30 01:55:35;;;;;;;4.53;4.13;;;17.50;95.30;;;;;;5040704;28;20494;-49
2022/06/30 01:58:03;;;;;;;4.90;4.50;;;17.50;95.00;;;;;;5037562;28;20483;-50
2022/06/30 02:00:31;;;;;;;5.80;4.37;;;17.50;95.00;;;;;;5062481;28;20489;-49
2022/06/30 02:02:58;;;;;;;5.17;4.00;;;17.50;94.90;;;;;;5048430;28;20544;-49
2022/06/30 02:05:26;;;;;;;6.27;3.87;;;17.40;95.10;;;;;;5057525;28;20525;-49
2022/06/30 02:07:53;;;;;;;4.90;4.20;;;17.20;95.50;;;;;;5041743;28;20486;-49
2022/06/30 02:10:23;;;;;;;4.93;4.47;;;17.20;95.60;;;;;;5049666;28;20494;-49
2022/06/30 02:12:51;;;;;;;8.33;5.93;;;17.00;96.80;;;;;;5055620;28;20952;-49
2022/06/30 02:15:21;;;;;;;6.87;5.00;;;16.80;97.60;;;;;;5047237;28;20487;-49
2022/06/30 02:17:50;;;;;;;9.10;5.53;;;16.80;97.90;;;;;;5053115;28;20852;-49
2022/06/30 02:20:21;;;;;;;5.80;5.20;;;16.70;98.20;;;;;;5047845;28;20483;-49
2022/06/30 02:22:48;;;;;;;7.33;4.97;;;16.70;98.80;;;;;;5055801;28;20984;-49
2022/06/30 02:25:15;;;;;;;5.20;4.70;;;16.70;97.60;;;;;;5059637;28;20479;-49
2022/06/30 02:27:41;;;;;;;5.80;4.60;;;16.70;97.10;;;;;;5048942;28;20482;-49
2022/06/30 02:30:09;;;;;;;5.23;4.73;;;16.80;96.50;;;;;;5059532;28;20486;-49
2022/06/30 02:32:37;;;;;;;7.10;4.40;;;16.80;96.40;;;;;;5061209;28;20501;-49
2022/06/30 02:35:05;;;;;;;8.27;4.87;;;16.80;96.30;;;;;;5058648;28;21241;-49
2022/06/30 02:37:31;;;;;;;5.77;4.20;;;16.80;96.50;;;;;;5055370;28;20959;-48
2022/06/30 02:39:58;;;;;;;8.33;5.87;;;16.90;96.00;;;;;;5059887;28;20505;-49
2022/06/30 02:42:25;;;;;;;13.73;6.10;;;16.90;95.90;;;;;;5060048;28;20488;-49
2022/06/30 02:44:52;;;;;;;5.90;4.90;;;16.90;96.30;;;;;;5057100;28;20485;-48
2022/06/30 02:47:18;;;;;;;7.53;4.40;;;16.90;96.30;;;;;;5056102;28;20494;-50
2022/06/30 02:49:46;;;;;;;5.40;4.97;;;16.80;96.50;;;;;;5060029;28;20487;-49
2022/06/30 02:52:13;;;;;;;14.00;5.37;;;16.70;96.70;;;;;;5059465;28;20481;-49
2022/06/30 02:54:40;;;;;;;7.97;4.70;;;16.70;96.80;;;;;;5057806;28;20474;-50
2022/06/30 02:57:06;;;;;;;9.03;5.00;;;16.70;96.50;;;;;;5053994;28;20494;-49
2022/06/30 02:59:33;;;;;;;7.20;5.13;;;16.70;96.30;;;;;;5059935;28;20483;-49
2022/06/30 03:02:00;;;;;;;5.83;4.47;;;16.70;96.00;;;;;;5058276;28;20480;-49
2022/06/30 03:04:27;;;;;;;5.67;4.77;;;16.60;95.80;;;;;;5055845;28;20491;-48
2022/06/30 03:06:55;;;;;;;7.53;4.80;;;16.60;95.90;;;;;;5051694;28;20482;-48
2022/06/30 03:09:23;;;;;;;4.50;4.10;;;16.60;96.10;;;;;;5057406;28;21019;-49
2022/06/30 03:11:50;;;;;;;7.53;5.20;;;16.60;96.00;;;;;;5058279;28;20471;-48
2022/06/30 03:14:16;;;;;;;8.10;5.13;;;16.60;96.10;;;;;;5048622;28;20848;-49
2022/06/30 03:16:43;;;;;;;6.50;5.13;;;16.60;96.40;;;;;;5059104;28;20490;-49
2022/06/30 03:19:10;;;;;;;5.93;5.33;;;16.60;96.00;;;;;;5052645;28;20471;-50
2022/06/30 03:21:37;;;;;;;6.10;4.80;;;16.60;95.90;;;;;;5056400;28;21003;-49
2022/06/30 03:24:05;;;;;;;5.30;4.90;;;16.60;95.90;;;;;;5055716;28;20490;-49
2022/06/30 03:26:32;;;;;;;7.97;4.37;;;16.50;95.80;;;;;;5047486;28;20484;-49
2022/06/30 03:28:59;;;;;;;5.47;4.47;;;16.30;96.10;;;;;;5062328;28;20872;-49
2022/06/30 03:31:26;;;;;;;8.63;4.90;;;16.30;96.50;;;;;;5059964;28;20503;-48
2022/06/30 03:33:52;;;;;;;7.20;4.83;;;16.10;97.60;;;;;;5063657;28;20999;-49
2022/06/30 03:36:19;;;;;;;5.77;5.27;;;16.10;97.10;;;;;;5057414;28;20489;-49
2022/06/30 03:38:46;;;;;;;9.83;4.17;;;16.10;96.80;;;;;;5058337;28;20545;-49
2022/06/30 03:41:14;;;;;;;4.97;4.30;;;16.20;96.40;;;;;;5058372;28;20482;-49
2022/06/30 03:43:41;;;;;;;11.33;6.73;;;16.00;96.50;;;;;;5057476;28;20467;-48
2022/06/30 03:46:07;;;;;;;6.40;5.90;;;16.00;96.80;;;;;;5054854;28;20493;-49
2022/06/30 03:48:35;;;;;;;7.80;5.13;;;15.90;97.30;;;;;;5056403;28;20861;-48
2022/06/30 03:51:02;;;;;;;5.23;4.83;;;16.00;97.10;;;;;;5057874;28;20619;-48
2022/06/30 03:53:29;;;;;;;4.97;4.30;;;16.00;97.30;;;;;;5057413;28;20920;-49
2022/06/30 03:55:56;;;;;;;5.60;5.03;;;16.20;96.80;;;;;;5052881;28;21198;-49
2022/06/30 03:58:24;;;;;;;6.63;4.60;;;16.20;96.60;;;;;;5055869;28;20496;-49
2022/06/30 04:00:51;;;;;;;4.80;4.40;;;16.20;96.50;;;;;;5049860;28;20893;-49
2022/06/30 04:03:18;;;;;;;6.37;5.77;;;16.20;96.40;;;;;;5030851;28;21163;-49
2022/06/30 04:05:45;;;;;;;10.83;5.30;;;16.20;96.60;;;;;;5057908;28;20471;-48
2022/06/30 04:08:11;;;;;;;6.07;5.57;;;16.20;96.60;;;;;;5057762;28;20805;-49
2022/06/30 04:10:38;;;;;;;8.57;5.47;;;16.20;96.40;;;;;;5059675;28;20766;-49
2022/06/30 04:13:05;;;;;;;7.07;6.37;;;16.30;96.40;;;;;;5058189;28;20491;-50
2022/06/30 04:15:34;;;;;;;11.33;5.60;;;16.30;96.60;;;;;;5058145;28;20987;-48
2022/06/30 04:18:00;;;;;;;6.07;5.30;;;16.40;96.60;;;;;;5052477;28;20527;-49
2022/06/30 04:20:27;;;;;;;5.80;4.50;;;16.40;96.50;;;;;;5058120;28;20984;-49
2022/06/30 04:22:54;;;;;;;13.43;5.10;;;16.40;96.80;;;;;;5057407;28;20987;-49
2022/06/30 04:25:22;;;;;;;5.80;5.10;;;16.30;96.60;;;;;;5061007;28;20475;-49
2022/06/30 04:27:50;;;;;;;11.83;6.03;;;16.30;96.80;;;;;;5052514;28;20478;-48
2022/06/30 04:32:37;;;;;;;8.03;6.50;;;16.40;96.70;;;;;;5048119;28;21067;-49
2022/06/30 04:33:07;;;;;;;5.97;5.47;;;16.40;96.80;;;;;;5048732;28;20475;-49
2022/06/30 04:35:34;;;;;;;11.37;6.50;;;16.50;96.90;;;;;;5057762;28;20483;-49
2022/06/30 04:38:02;;;;;;;9.67;5.17;;;16.50;96.80;;;;;;5054100;28;20852;-49
2022/06/30 04:43:13;;;;;;;8.00;6.27;;;16.40;98.00;;;;;;5052174;28;20474;-49
2022/06/30 04:45:40;;;;;;;6.47;5.97;;;16.40;98.80;;;;;;5059397;28;20539;-49
2022/06/30 04:48:08;;;;;;;16.27;7.20;;;16.30;99.30;;;;;;5055325;28;20998;-49
2022/06/30 04:50:35;;;;;;;14.80;6.20;;;16.20;99.90;;;;;;5057716;28;20835;-48
2022/06/30 04:53:02;;;;;;;10.07;6.97;;;16.20;99.90;;;;;;5057067;28;20483;-48
2022/06/30 04:55:28;;;;;;;15.23;6.30;;;16.20;99.90;;;;;;5059243;28;20486;-48
2022/06/30 04:57:55;;;;;;;10.93;5.70;;;16.50;99.90;;;;;;5053229;28;20475;-49
2022/06/30 05:00:22;;;;;;;11.83;6.33;;;16.60;99.90;;;;;;5048431;28;20550;-49
2022/06/30 05:02:49;;;;;;;10.60;6.90;;;16.80;99.80;;;;;;5051856;28;20474;-49
2022/06/30 05:05:17;;;;;;;14.17;7.30;;;17.10;99.80;;;;;;5047034;28;20933;-49
2022/06/30 05:07:43;;;;;;;11.40;7.40;;;17.20;99.80;;;;;;5053370;28;20972;-49
2022/06/30 05:10:10;;;;;;;8.80;8.00;;;17.40;99.90;;;;;;5052991;28;20523;-49
2022/06/30 05:12:37;;;;;;;6.90;6.20;;;17.50;99.60;;;;;;5057951;28;20475;-49
2022/06/30 05:15:05;;;;;;;7.67;6.97;;;17.60;99.70;;;;;;5049973;28;20477;-49
2022/06/30 05:17:33;;;;;;;7.27;6.57;;;17.80;99.80;;;;;;5047120;28;20526;-50
2022/06/30 05:20:00;;;;;;;10.10;5.90;;;18.00;99.70;;;;;;5055382;28;20475;-49
2022/06/30 05:22:28;;;;;;;18.03;7.13;;;18.00;99.90;;;;;;5054040;28;20490;-50
2022/06/30 05:27:48;;;;;;;7.50;6.20;;;18.30;99.90;;;;;;4996889;28;20495;-49
2022/06/30 05:30:15;;;;;;;7.93;7.13;;;18.50;99.90;;;;;;5052905;28;20482;-49
2022/06/30 05:32:42;;;;;;;6.87;6.17;;;18.70;99.90;;;;;;5056313;28;25053;-50
2022/06/30 05:35:09;;;;;;;9.00;8.20;;;18.80;99.90;;;;;;5055937;28;20471;-50
2022/06/30 05:37:38;;;;;;;7.23;6.50;;;18.80;99.90;;;;;;5055236;28;20536;-49
2022/06/30 05:40:06;;;;;;;16.63;7.50;;;19.10;99.90;;;;;;5057271;28;20489;-51
2022/06/30 05:42:32;;;;;;;7.57;6.83;;;19.20;99.90;;;;;;5061962;28;20479;-50
2022/06/30 05:44:59;;;;;;;10.30;8.07;;;19.30;99.70;;;;;;5060350;28;21008;-50
2022/06/30 05:47:26;;;;;;;7.93;7.03;;;19.40;99.70;;;;;;5057673;28;20527;-51
2022/06/30 05:49:53;;;;;;;9.77;7.83;;;19.60;99.60;;;;;;5063805;28;20478;-51
2022/06/30 05:52:20;;;;;;;7.67;7.00;;;19.60;99.30;;;;;;5058987;28;20478;-50
2022/06/30 05:54:48;;;;;;;10.60;6.73;;;19.80;99.60;;;;;;5062385;28;20483;-51
2022/06/30 05:57:15;;;;;;;9.70;7.77;;;19.90;99.50;;;;;;5042939;28;20479;-51
2022/06/30 05:59:42;;;;;;;6.73;6.10;;;20.00;99.50;;;;;;5047191;28;20813;-51
2022/06/30 06:02:09;;;;;;;8.80;6.53;;;20.20;99.70;;;;;;5059170;28;20509;-51
2022/06/30 06:04:36;;;;;;;9.17;7.30;;;20.20;99.80;;;;;;5057831;28;20903;-51
2022/06/30 06:07:03;;;;;;;8.00;6.40;;;20.40;99.90;;;;;;5056030;28;21080;-51
2022/06/30 06:09:30;;;;;;;8.77;7.90;;;20.50;99.80;;;;;;5060043;28;20999;-51
2022/06/30 06:11:58;;;;;;;7.70;7.00;;;20.50;99.90;;;;;;5059943;28;20711;-51
2022/06/30 06:14:25;;;;;;;8.83;7.13;;;20.80;99.90;;;;;;5063122;28;20501;-51
2022/06/30 06:16:52;;;;;;;8.20;6.60;;;20.90;99.90;;;;;;5059111;28;20474;-50
2022/06/30 06:19:18;;;;;;;11.03;6.30;;;21.20;99.90;;;;;;5062167;28;20477;-51
2022/06/30 06:21:45;;;;;;;8.23;6.40;;;21.20;99.90;;;;;;5065084;28;20489;-51
2022/06/30 06:24:11;;;;;;;20.03;7.60;;;21.50;99.60;;;;;;5058841;28;20484;-51
2022/06/30 06:26:38;;;;;;;9.40;6.10;;;21.60;99.90;;;;;;5055336;28;20498;-52
2022/06/30 06:29:06;;;;;;;7.57;6.87;;;21.90;99.20;;;;;;5059302;28;20496;-51
2022/06/30 06:31:34;;;;;;;13.50;6.73;;;22.20;98.40;;;;;;5060546;28;20554;-51
2022/06/30 06:34:01;;;;;;;6.83;6.13;;;22.20;98.50;;;;;;5057883;28;20483;-51
2022/06/30 06:36:28;;;;;;;6.60;6.00;;;22.40;98.20;;;;;;5054344;28;21009;-51
2022/06/30 06:38:55;;;;;;;7.90;6.73;;;22.80;97.90;;;;;;5057267;28;20482;-50
2022/06/30 06:41:22;;;;;;;6.93;6.30;;;23.00;97.80;;;;;;5049684;28;20828;-51
2022/06/30 06:43:49;;;;;;;6.80;6.20;;;23.10;98.00;;;;;;5050742;28;20486;-51
2022/06/30 06:46:17;;;;;;;7.50;5.73;;;23.30;97.60;;;;;;5053340;28;20486;-51
2022/06/30 06:48:44;;;;;;;14.23;6.20;;;23.60;97.80;;;;;;5057042;28;21014;-51
2022/06/30 06:51:11;;;;;;;6.23;5.80;;;23.70;97.50;;;;;;5056053;28;20979;-51
2022/06/30 06:53:38;;;;;;;6.73;6.00;;;23.90;97.70;;;;;;5059968;28;20487;-51
2022/06/30 06:56:06;;;;;;;6.17;5.63;;;24.20;96.90;;;;;;5059733;28;20776;-53
2022/06/30 06:58:32;;;;;;;5.87;5.37;;;24.30;96.90;;;;;;5059666;28;20486;-52
2022/06/30 07:01:00;;;;;;;6.17;5.67;;;24.50;96.50;;;;;;5063746;28;20474;-52
2022/06/30 07:03:29;;;;;;;7.93;6.03;;;24.70;96.50;;;;;;5061069;28;20517;-54
2022/06/30 07:05:56;;;;;;;6.10;5.50;;;24.90;96.30;;;;;;5049762;28;20507;-53
2022/06/30 07:08:23;;;;;;;6.47;5.83;;;25.10;96.30;;;;;;5055370;28;20506;-52
2022/06/30 07:10:50;;;;;;;6.37;5.90;;;25.40;95.70;;;;;;5059966;28;21048;-52
2022/06/30 07:13:17;;;;;;;6.90;5.60;;;;;;;;;;5055753;28;20484;-52
2022/06/30 07:15:44;;;;;;;6.87;5.53;;;25.90;95.40;;;;;;5058767;28;20570;-52
2022/06/30 07:18:11;;;;;;;6.07;5.57;;;26.00;95.60;;;;;;5055158;28;20977;-53
2022/06/30 07:20:39;;;;;;;5.87;4.90;;;26.10;94.80;;;;;;5055904;28;21177;-52
2022/06/30 07:23:05;;;;;;;6.10;5.50;;;26.20;94.50;;;;;;5059594;28;20494;-53
2022/06/30 07:25:32;;;;;;;5.87;5.37;;;26.30;94.80;;;;;;5060860;28;20490;-53
2022/06/30 07:27:59;;;;;;;5.53;5.13;;;;;;;;;;5052862;28;20475;-53
2022/06/30 07:30:26;;;;;;;8.57;5.57;;;26.90;93.60;;;;;;5051362;28;20481;-52
2022/06/30 07:32:53;;;;;;;5.33;4.93;;;27.20;93.60;;;;;;5030026;28;20560;-52
2022/06/30 07:35:20;;;;;;;5.20;4.80;;;;;;;;;;5060289;28;20479;-52
2022/06/30 07:37:48;;;;;;;7.83;5.77;;;27.80;93.00;;;;;;5053130;28;20464;-52
2022/06/30 07:40:15;;;;;;;7.33;6.57;;;28.10;92.60;;;;;;5059833;28;20474;-52
2022/06/30 07:42:42;;;;;;;5.53;5.03;;;28.20;92.40;;;;;;5053873;28;20968;-52
2022/06/30 07:45:10;;;;;;;6.17;5.67;;;28.40;92.20;;;;;;5059899;28;20478;-52
2022/06/30 07:47:39;;;;;;;5.17;4.87;;;28.70;90.50;;;;;;5056213;28;21369;-52
2022/06/30 07:50:07;;;;;;;5.13;4.70;;;28.90;91.00;;;;;;5060692;28;20943;-52
2022/06/30 07:52:34;;;;;;;5.83;4.60;;;29.30;91.00;;;;;;5065054;28;20485;-53
2022/06/30 07:55:03;;;;;;;5.23;4.83;;;29.50;90.10;;;;;;5063111;28;20605;-53
2022/06/30 07:57:30;;;;;;;5.77;5.27;;;29.80;90.00;;;;;;5057930;28;20487;-53
2022/06/30 07:59:57;;;;;;;5.50;5.00;;;29.60;85.90;;;;;;5046679;28;20562;-52
2022/06/30 08:02:24;;;;;;;10.40;4.30;;;29.60;89.80;;;;;;5055035;28;20991;-52
2022/06/30 08:04:51;;;;;;;5.30;4.90;;;29.30;82.10;;;;;;5064124;28;20967;-52
2022/06/30 08:07:18;;;;;;;5.50;5.00;;;29.30;82.00;;;;;;5058782;28;20463;-53
2022/06/30 08:09:44;;;;;;;5.03;4.63;;;29.20;84.70;;;;;;5064593;28;20461;-52
2022/06/30 08:12:12;;;;;;;4.80;4.40;;;29.10;84.00;;;;;;5036409;28;20502;-51
2022/06/30 08:14:39;;;;;;;7.00;4.53;;;29.00;83.10;;;;;;5054631;28;21396;-52
2022/06/30 08:17:06;;;;;;;4.90;4.50;;;29.00;84.10;;;;;;5053106;28;20470;-52
2022/06/30 08:19:33;;;;;;;6.80;5.23;;;29.10;86.10;;;;;;5065151;28;20455;-51
2022/06/30 08:21:59;;;;;;;5.10;4.60;;;29.20;84.20;;;;;;5061815;28;20868;-52
2022/06/30 08:24:26;;;;;;;5.90;5.40;;;29.30;86.00;;;;;;5037084;28;20444;-52
2022/06/30 08:26:53;;;;;;;4.50;4.10;;;29.60;84.10;;;;;;5054251;28;20494;-51
2022/06/30 08:29:21;;;;;;;6.83;6.30;;;29.50;84.20;;;;;;5049428;28;20917;-52
2022/06/30 08:31:48;;;;;;;5.10;4.70;;;29.40;81.90;;;;;;5055327;28;20972;-52
2022/06/30 08:34:15;;;;;;;7.27;4.70;;;29.20;83.90;;;;;;5059926;28;20452;-51
2022/06/30 08:36:41;;;;;;;5.63;4.77;;;29.30;85.50;;;;;;5058389;28;20468;-51
2022/06/30 08:42:02;;;;;;;4.33;4.03;;;29.60;85.90;;;;;;5053130;28;20467;-51
2022/06/30 08:42:04;;;;;;;4.83;4.50;;;29.90;83.60;;;;;;5054315;28;20474;-51
2022/06/30 08:44:35;;;;;;;5.00;4.60;;;29.80;75.90;;;;;;5054341;28;20569;-51
2022/06/30 08:47:04;;;;;;;4.13;3.73;;;29.90;75.60;;;;;;5031422;28;20482;-51
2022/06/30 08:49:32;;;;;;;6.43;4.90;;;29.90;76.90;;;;;;5054587;28;20470;-51
2022/06/30 08:52:00;;;;;;;4.60;4.30;;;30.00;78.60;;;;;;5022454;28;20451;-51
2022/06/30 08:54:28;;;;;;;8.23;3.90;;;30.20;76.90;;;;;;5062581;28;20485;-51
2022/06/30 08:57:00;;;;;;;5.27;4.83;;;30.00;74.90;;;;;;5050586;28;20488;-51
2022/06/30 08:59:28;;;;;;;4.27;3.97;;;30.20;76.00;;;;;;5053804;28;20564;-51
2022/06/30 09:01:57;;;;;;;4.17;3.87;;;30.10;77.10;;;;;;5055155;28;20716;-51
2022/06/30 09:04:23;;;;;;;6.20;3.80;;;30.50;79.30;;;;;;5061665;28;21311;-51
2022/06/30 09:06:50;;;;;;;3.83;3.53;;;30.80;78.20;;;;;;5051145;28;21261;-52
2022/06/30 09:09:17;;;;;;;5.77;3.77;;;30.40;71.80;;;;;;5052773;28;20495;-50
2022/06/30 09:11:45;;;;;;;3.23;3.03;;;30.40;69.90;;;;;;5053092;28;20604;-52
2022/06/30 09:14:11;;;;;;;4.10;3.60;;;30.20;69.20;;;;;;5062339;28;20931;-50
2022/06/30 09:16:52;;;;;;;3.87;3.57;;;30.00;69.80;;;;;;5047854;28;20478;-51
2022/06/30 09:19:20;;;;;;;4.60;4.00;;;30.00;70.00;;;;;;5062418;28;20486;-51
2022/06/30 09:22:03;;;;;;;3.77;3.03;;;30.00;73.40;;;;;;5062583;28;20453;-51
2022/06/30 09:24:30;;;;;;;4.07;3.27;;;30.30;76.00;;;;;;5059037;28;20483;-51
2022/06/30 09:27:10;;;;;;;7.93;3.27;;;30.50;76.40;;;;;;5017970;28;20447;-52
2022/06/30 09:29:49;;;;;;;6.60;3.40;;;30.40;68.30;;;;;;5049450;28;20561;-51
2022/06/30 09:32:16;;;;;;;3.43;3.13;;;30.70;70.00;;;;;;5057156;28;20456;-50
2022/06/30 09:34:45;;;;;;;3.80;3.47;;;31.00;69.90;;;;;;5050725;28;20968;-51
2022/06/30 09:37:22;;;;;;;5.80;3.37;;;31.30;70.00;;;;;;5054918;28;20485;-52
2022/06/30 09:39:49;;;;;;;3.60;3.30;;;31.30;69.40;;;;;;5052146;28;20456;-51
2022/06/30 09:42:35;;;;;;;5.50;3.80;;;31.40;73.90;;;;;;5062025;28;20449;-51
2022/06/30 09:45:02;;;;;;;3.40;3.20;;;31.70;70.90;;;;;;5033953;28;20469;-52
2022/06/30 09:47:28;;;;;;;3.50;3.20;;;31.40;70.70;;;;;;5055390;28;20489;-51
2022/06/30 09:50:01;;;;;;;3.87;3.40;;;31.00;67.60;;;;;;5063917;28;20947;-52
2022/06/30 09:52:28;;;;;;;3.60;3.00;;;31.00;70.10;;;;;;5059628;28;20460;-51
2022/06/30 09:54:56;;;;;;;3.93;3.20;;;31.20;68.60;;;;;;5061594;28;20450;-51
2022/06/30 09:57:25;;;;;;;4.40;3.20;;;31.70;70.50;;;;;;5053621;28;20449;-51
2022/06/30 10:00:00;;;;;;;5.90;3.33;;;31.80;70.30;;;;;;5061864;28;20569;-51
2022/06/30 10:02:31;;;;;;;3.60;3.30;;;32.20;72.00;;;;;;5059761;28;20496;-51
2022/06/30 10:05:00;;;;;;;3.60;2.83;;;32.20;67.10;;;;;;5061607;28;20553;-51
2022/06/30 10:07:27;;;;;;;3.17;2.97;;;31.40;64.50;;;;;;5054434;28;20444;-51
2022/06/30 10:09:55;;;;;;;4.50;2.83;;;31.50;67.30;;;;;;5061448;28;20946;-51
2022/06/30 10:12:24;;;;;;;3.23;2.93;;;31.50;65.70;;;;;;5062424;28;20477;-51
2022/06/30 10:14:53;;;;;;;2.53;2.33;;;31.50;65.70;;;;;;5058337;28;20490;-50
2022/06/30 10:17:22;;;;;;;3.30;3.00;;;31.30;64.80;;;;;;5051330;28;21054;-51
2022/06/30 10:19:50;;;;;;;2.60;2.40;;;31.40;64.00;;;;;;5061495;28;20457;-51
2022/06/30 10:22:19;;;;;;;3.60;3.30;;;31.30;65.00;;;;;;5062356;28;20564;-51
2022/06/30 10:24:47;;;;;;;3.00;2.80;;;31.10;66.30;;;;;;5053981;28;20662;-50
2022/06/30 10:27:14;;;;;;;3.53;3.23;;;31.10;66.30;;;;;;5047005;28;20463;-50
2022/06/30 10:29:46;;;;;;;5.17;3.27;;;31.00;65.60;;;;;;5065964;28;20504;-51
2022/06/30 10:32:21;;;;;;;4.73;3.33;;;31.00;66.20;;;;;;5063343;28;20452;-51
2022/06/30 10:34:55;;;;;;;3.17;2.97;;;31.50;70.30;;;;;;5059939;28;20494;-51
2022/06/30 10:37:32;;;;;;;4.27;3.00;;;31.90;70.00;;;;;;5058088;28;20467;-51
2022/06/30 10:40:01;;;;;;;4.13;3.23;;;32.20;67.60;;;;;;5060349;28;20762;-52
2022/06/30 10:42:49;;;;;;;2.90;2.50;;;31.90;62.20;;;;;;5065792;28;20999;-51
2022/06/30 10:45:54;;;;;;;10.00;2.70;;;31.70;62.20;;;;;;5056740;28;20494;-50
2022/06/30 10:48:21;;;;;;;3.37;3.07;;;31.50;63.70;;;;;;5061773;28;20471;-51
2022/06/30 10:50:49;;;;;;;3.73;3.30;;;31.70;65.20;;;;;;5065435;28;20847;-51
2022/06/30 10:53:37;;;;;;;3.40;3.10;;;31.70;64.40;;;;;;5057110;28;20460;-51
2022/06/30 10:56:05;;;;;;;4.40;3.13;;;31.70;62.50;;;;;;5025499;28;20939;-50
2022/06/30 10:58:32;;;;;;;2.83;2.63;;;31.70;63.00;;;;;;5046467;28;20475;-51
2022/06/30 11:01:01;;;;;;;3.20;3.00;;;31.90;66.00;;;;;;5056880;28;20450;-50
2022/06/30 11:04:01;;;;;;;5.27;3.40;;;32.20;65.80;;;;;;5062970;28;20451;-51
2022/06/30 11:07:07;;;;;;;3.70;3.40;;;32.10;63.60;;;;;;5054874;28;20809;-50
2022/06/30 11:10:19;;;;;;;4.33;4.03;;;32.00;65.60;;;;;;5061901;28;20585;-50
2022/06/30 11:13:08;;;;;;;3.37;3.17;;;31.90;65.70;;;;;;5062690;28;20464;-51
2022/06/30 11:15:57;;;;;;;4.20;3.90;;;32.30;67.60;;;;;;5057469;28;20538;-50
2022/06/30 11:18:26;;;;;;;3.87;3.60;;;32.40;68.20;;;;;;5058566;28;20468;-51
2022/06/30 11:20:54;;;;;;;8.50;4.00;;;32.40;64.80;;;;;;5065595;28;20467;-50
2022/06/30 11:23:22;;;;;;;4.10;3.80;;;32.50;65.70;;;;;;5064228;28;20453;-51
2022/06/30 11:28:39;;;;;;;3.37;3.17;;;32.70;66.60;;;;;;5065432;28;20734;-50
2022/06/30 11:31:25;;;;;;;3.77;3.47;;;32.90;65.10;;;;;;5031685;28;20456;-50
2022/06/30 11:33:54;;;;;;;3.40;2.90;;;32.90;66.60;;;;;;5063741;28;20691;-49
2022/06/30 11:36:20;;;;;;;3.67;3.30;;;33.00;64.60;;;;;;5049269;28;20496;-50
2022/06/30 11:38:53;;;;;;;11.20;4.13;;;33.30;62.10;;;;;;5059596;28;20470;-51
2022/06/30 11:44:24;;;;;;;3.30;3.00;;;33.30;63.50;;;;;;5000042;28;20495;-51
2022/06/30 11:46:53;;;;;;;3.73;3.00;;;33.00;60.50;;;;;;4992242;28;20468;-50
2022/06/30 11:49:21;;;;;;;4.60;3.50;;;32.70;59.00;;;;;;5026194;28;21006;-50
2022/06/30 11:51:48;;;;;;;2.77;2.53;;;33.00;64.30;;;;;;5063274;28;20464;-51
2022/06/30 11:54:16;;;;;;;3.37;3.17;;;32.50;59.10;;;;;;5063823;28;21023;-51
2022/06/30 11:56:50;;;;;;;3.00;2.80;;;32.50;62.60;;;;;;5058216;28;20457;-50
2022/06/30 11:59:17;;;;;;;3.73;3.43;;;32.70;60.70;;;;;;5043494;28;20896;-51
2022/06/30 12:02:03;;;;;;;4.90;4.00;;;32.90;61.20;;;;;;5059847;28;20460;-53
2022/06/30 12:04:31;;;;;;;3.30;3.00;;;32.80;62.10;;;;;;5064183;28;20456;-51
2022/06/30 12:06:57;;;;;;;3.07;2.87;;;32.50;59.10;;;;;;5050650;28;20948;-51
2022/06/30 12:09:24;;;;;;;3.13;2.93;;;32.20;58.80;;;;;;5059508;28;20461;-50
2022/06/30 12:11:53;;;;;;;3.73;3.43;;;32.20;60.40;;;;;;5060819;28;20482;-51
2022/06/30 12:14:20;;;;;;;4.43;3.43;;;32.20;64.20;;;;;;5062482;28;21173;-51
2022/06/30 12:16:46;;;;;;;3.50;3.10;;;32.30;59.80;;;;;;5054838;28;20470;-51
2022/06/30 12:19:15;;;;;;;3.40;3.10;;;32.50;61.00;;;;;;5060616;28;20971;-51
2022/06/30 12:21:43;;;;;;;5.03;2.87;;;32.50;62.10;;;;;;5063203;28;20498;-52
2022/06/30 12:24:10;;;;;;;4.73;2.53;;;32.50;62.40;;;;;;5062298;28;20810;-51
2022/06/30 12:26:36;;;;;;;3.37;3.13;;;32.40;61.20;;;;;;5055575;28;20768;-50
2022/06/30 12:29:14;;;;;;;3.10;2.80;;;32.60;61.80;;;;;;5059575;28;20511;-49
2022/06/30 12:31:40;;;;;;;3.33;3.03;;;32.70;63.20;;;;;;5030795;28;20967;-49
2022/06/30 12:34:07;;;;;;;4.00;3.70;;;32.70;59.70;;;;;;5061856;28;20448;-50
2022/06/30 12:36:35;;;;;;;4.33;3.00;;;32.80;62.10;;;;;;5047861;28;20931;-49
2022/06/30 12:39:12;;;;;;;3.10;2.80;;;32.90;59.00;;;;;;5060010;28;20613;-51
2022/06/30 12:41:38;;;;;;;3.27;2.97;;;32.70;59.50;;;;;;5034347;28;20910;-49
2022/06/30 12:44:05;;;;;;;3.07;2.80;;;32.60;58.50;;;;;;5062870;28;21566;-50
2022/06/30 12:46:40;;;;;;;4.20;3.30;;;32.80;62.20;;;;;;5032306;28;20467;-49
2022/06/30 12:49:07;;;;;;;3.10;2.10;;;32.90;57.30;;;;;;5053716;28;20479;-49
2022/06/30 12:51:41;;;;;;;1.83;1.50;;;32.90;57.30;;;;;;5062157;28;20571;-50
2022/06/30 12:54:09;;;;;;;2.40;2.20;;;32.80;55.30;;;;;;5062344;28;20437;-50
2022/06/30 12:56:37;;;;;;;2.60;2.40;;;32.80;54.80;;;;;;5039935;28;20490;-49
2022/06/30 12:59:05;;;;;;;3.83;2.33;;;32.90;54.60;;;;;;5050820;28;20450;-50
2022/06/30 13:01:34;;;;;;;3.00;2.70;;;33.00;57.30;;;;;;5054034;28;20481;-51
2022/06/30 13:04:04;;;;;;;3.90;2.20;;;32.90;55.70;;;;;;5053017;28;20445;-50
2022/06/30 13:06:32;;;;;;;2.70;2.50;;;32.70;55.00;;;;;;5050972;28;20476;-49
2022/06/30 13:09:03;;;;;;;2.53;2.33;;;32.50;58.40;;;;;;5057963;28;20481;-50
2022/06/30 13:11:30;;;;;;;2.83;2.63;;;32.50;58.00;;;;;;5062543;28;20935;-49